createdAt,value
2023-04-16T00:01:07.453Z,11.27
2023-04-16T00:03:37.382Z,10.85
2023-04-16T00:06:08.067Z,10.57
2023-04-16T00:08:38.492Z,12.43
2023-04-16T00:11:08.548Z,12.30
2023-04-16T00:13:38.389Z,11.63
2023-04-16T00:16:11.175Z,12.70
2023-04-16T00:18:40.993Z,12.00
2023-04-16T00:21:10.812Z,11.90
2023-04-16T00:23:40.798Z,11.77
2023-04-16T00:26:11.374Z,12.00
2023-04-16T00:28:44.240Z,12.20
2023-04-16T00:31:16.528Z,13.10
2023-04-16T00:33:46.244Z,12.10
2023-04-16T00:36:16.111Z,12.15
2023-04-16T00:38:45.820Z,12.60
2023-04-16T00:41:15.647Z,12.27
2023-04-16T00:43:45.362Z,12.85
2023-04-16T00:46:19.022Z,13.73
2023-04-16T00:48:49.471Z,11.68
2023-04-16T00:51:20.191Z,10.93
2023-04-16T00:53:50.331Z,12.07
2023-04-16T00:56:20.737Z,12.68
2023-04-16T00:58:51.542Z,10.13
2023-04-16T01:01:23.942Z,10.98
2023-04-16T01:03:53.963Z,11.15
2023-04-16T01:06:23.900Z,9.75
2023-04-16T01:08:53.599Z,8.60
2023-04-16T01:11:23.294Z,9.88
2023-04-16T01:13:53.069Z,9.90
2023-04-16T01:16:26.929Z,9.93
2023-04-16T01:18:56.749Z,9.05
2023-04-16T01:21:29.010Z,9.18
2023-04-16T01:23:58.875Z,8.93
2023-04-16T01:26:28.828Z,9.70
2023-04-16T01:28:58.513Z,8.85
2023-04-16T01:31:28.331Z,7.45
2023-04-16T01:34:11.973Z,7.65
2023-04-16T01:36:44.254Z,7.97
2023-04-16T01:39:15.844Z,8.63
2023-04-16T01:41:45.889Z,7.18
2023-04-16T01:44:15.665Z,7.30
2023-04-16T01:46:46.435Z,7.32
2023-04-16T01:49:16.491Z,7.82
2023-04-16T01:51:48.755Z,7.03
2023-04-16T01:54:18.468Z,8.32
2023-04-16T01:56:48.525Z,7.93
2023-04-16T01:59:18.582Z,7.97
2023-04-16T02:01:48.346Z,9.10
2023-04-16T02:04:18.047Z,8.20
2023-04-16T02:06:50.487Z,8.82
2023-04-16T02:09:20.481Z,8.52
2023-04-16T02:11:50.656Z,8.20
2023-04-16T02:14:21.258Z,9.30
2023-04-16T02:16:51.190Z,8.75
2023-04-16T02:19:36.183Z,8.13
2023-04-16T02:22:08.463Z,8.68
2023-04-16T02:24:38.148Z,9.55
2023-04-16T02:27:11.391Z,9.93
2023-04-16T02:29:43.351Z,11.32
2023-04-16T02:32:17.614Z,11.50
2023-04-16T02:34:49.224Z,12.02
2023-04-16T02:37:21.964Z,11.82
2023-04-16T02:39:53.404Z,11.93
2023-04-16T02:42:23.444Z,12.88
2023-04-16T02:44:53.174Z,12.48
2023-04-16T02:47:22.852Z,13.40
2023-04-16T02:49:52.556Z,11.82
2023-04-16T02:52:24.977Z,10.88
2023-04-16T02:54:54.665Z,12.02
2023-04-16T02:57:24.383Z,10.23
2023-04-16T02:59:54.133Z,10.95
2023-04-16T03:02:24.032Z,11.10
2023-04-16T03:04:53.784Z,11.25
2023-04-16T03:07:26.087Z,10.90
2023-04-16T03:09:55.767Z,10.20
2023-04-16T03:12:25.435Z,11.52
2023-04-16T03:14:55.244Z,11.32
2023-04-16T03:17:24.959Z,11.18
2023-04-16T03:19:54.659Z,11.35
2023-04-16T03:22:27.186Z,10.90
2023-04-16T03:24:57.053Z,10.57
2023-04-16T03:27:27.070Z,10.80
2023-04-16T03:29:57.274Z,9.43
2023-04-16T03:32:27.225Z,10.48
2023-04-16T03:34:57.064Z,9.35
2023-04-16T03:37:29.426Z,9.57
2023-04-16T03:39:59.273Z,9.95
2023-04-16T03:42:29.203Z,9.40
2023-04-16T03:45:00.857Z,9.52
2023-04-16T03:47:30.810Z,9.45
2023-04-16T03:50:04.141Z,8.50
2023-04-16T03:52:36.399Z,8.32
2023-04-16T03:55:06.576Z,8.38
2023-04-16T03:57:36.302Z,8.60
2023-04-16T04:00:12.373Z,8.73
2023-04-16T04:02:53.603Z,8.43
2023-04-16T04:05:23.636Z,8.57
2023-04-16T04:07:57.122Z,8.40
2023-04-16T04:10:26.797Z,7.53
2023-04-16T04:12:56.495Z,7.72
2023-04-16T04:15:26.165Z,8.15
2023-04-16T04:17:57.672Z,8.68
2023-04-16T04:20:27.432Z,8.45
2023-04-16T04:22:59.753Z,8.05
2023-04-16T04:25:30.699Z,7.57
2023-04-16T04:28:01.435Z,7.88
2023-04-16T04:30:31.820Z,8.95
2023-04-16T04:33:01.572Z,8.25
2023-04-16T04:35:31.374Z,8.57
2023-04-16T04:38:04.544Z,8.43
2023-04-16T04:40:34.223Z,8.20
2023-04-16T04:43:03.975Z,7.95
2023-04-16T04:45:33.668Z,9.00
2023-04-16T04:48:03.479Z,8.80
2023-04-16T04:50:33.350Z,7.80
2023-04-16T04:53:10.057Z,7.47
2023-04-16T04:55:40.676Z,8.95
2023-04-16T04:58:11.236Z,9.10
2023-04-16T05:00:42.915Z,8.57
2023-04-16T05:03:13.730Z,8.10
2023-04-16T05:05:44.020Z,8.15
2023-04-16T05:08:16.402Z,7.93
2023-04-16T05:10:46.106Z,9.13
2023-04-16T05:13:15.801Z,8.07
2023-04-16T05:15:45.887Z,7.78
2023-04-16T05:18:15.864Z,7.85
2023-04-16T05:20:45.567Z,9.50
2023-04-16T05:23:17.955Z,8.38
2023-04-16T05:25:47.674Z,8.15
2023-04-16T05:28:17.351Z,9.18
2023-04-16T05:30:47.076Z,7.97
2023-04-16T05:33:16.798Z,8.55
2023-04-16T05:35:46.502Z,8.02
2023-04-16T05:38:18.762Z,9.15
2023-04-16T05:40:48.460Z,8.75
2023-04-16T05:43:18.111Z,9.07
2023-04-16T05:45:47.909Z,8.57
2023-04-16T05:48:17.608Z,9.10
2023-04-16T05:50:47.314Z,9.60
2023-04-16T05:53:19.609Z,8.73
2023-04-16T05:55:49.554Z,9.07
2023-04-16T05:58:19.213Z,9.57
2023-04-16T06:00:48.900Z,9.10
2023-04-16T06:03:18.625Z,10.50
2023-04-16T06:05:48.471Z,13.38
2023-04-16T06:08:20.799Z,9.48
2023-04-16T06:10:51.277Z,9.45
2023-04-16T06:13:20.964Z,9.73
2023-04-16T06:15:50.820Z,9.32
2023-04-16T06:18:20.654Z,11.73
2023-04-16T06:20:50.698Z,10.45
2023-04-16T06:23:22.966Z,9.40
2023-04-16T06:25:52.696Z,10.35
2023-04-16T06:28:22.433Z,10.13
2023-04-16T06:30:52.137Z,9.43
2023-04-16T06:33:21.811Z,9.95
2023-04-16T06:35:51.619Z,9.65
2023-04-16T06:38:23.979Z,10.13
2023-04-16T06:40:53.724Z,9.52
2023-04-16T06:43:23.412Z,9.40
2023-04-16T06:45:53.094Z,9.32
2023-04-16T06:48:22.774Z,10.43
2023-04-16T06:50:52.481Z,9.68
2023-04-16T06:53:24.883Z,9.13
2023-04-16T06:55:54.689Z,9.65
2023-04-16T06:58:25.199Z,10.00
2023-04-16T07:00:54.959Z,10.77
2023-04-16T07:03:24.860Z,9.38
2023-04-16T07:05:54.658Z,9.95
2023-04-16T07:08:27.048Z,9.93
2023-04-16T07:10:56.996Z,11.68
2023-04-16T07:13:26.825Z,10.00
2023-04-16T07:15:56.775Z,9.85
2023-04-16T07:18:26.468Z,8.80
2023-04-16T07:20:56.210Z,10.20
2023-04-16T07:23:28.586Z,8.73
2023-04-16T07:25:58.277Z,10.73
2023-04-16T07:28:28.058Z,8.77
2023-04-16T07:30:57.798Z,9.50
2023-04-16T07:33:27.481Z,10.52
2023-04-16T07:35:57.175Z,9.68
2023-04-16T07:38:29.452Z,9.73
2023-04-16T07:40:59.384Z,9.27
2023-04-16T07:43:29.098Z,9.70
2023-04-16T07:45:58.880Z,9.57
2023-04-16T07:48:28.727Z,10.13
2023-04-16T07:50:58.533Z,8.88
2023-04-16T07:53:30.927Z,9.30
2023-04-16T07:56:00.754Z,10.18
2023-04-16T07:58:30.462Z,9.32
2023-04-16T08:01:00.238Z,10.02
2023-04-16T08:03:30.163Z,9.98
2023-04-16T08:05:59.925Z,9.50
2023-04-16T08:08:32.267Z,9.98
2023-04-16T08:11:02.023Z,10.23
2023-04-16T08:13:33.634Z,9.82
2023-04-16T08:16:03.713Z,10.10
2023-04-16T08:18:33.423Z,9.27
2023-04-16T08:21:03.146Z,10.55
2023-04-16T08:23:35.707Z,10.48
2023-04-16T08:26:05.424Z,10.93
2023-04-16T08:28:35.507Z,9.48
2023-04-16T08:31:05.305Z,9.93
2023-04-16T08:33:35.004Z,10.65
2023-04-16T08:36:04.685Z,10.05
2023-04-16T08:38:36.959Z,9.90
2023-04-16T08:41:09.311Z,10.27
2023-04-16T08:43:41.199Z,10.23
2023-04-16T08:46:10.969Z,9.38
2023-04-16T08:48:41.709Z,9.80
2023-04-16T08:51:13.828Z,10.80
2023-04-16T08:53:55.475Z,10.68
2023-04-16T08:56:27.135Z,10.20
2023-04-16T08:58:58.565Z,11.70
2023-04-16T09:01:28.466Z,10.80
2023-04-16T09:03:58.966Z,11.27
2023-04-16T09:06:28.983Z,10.40
2023-04-16T09:09:04.749Z,11.02
2023-04-16T09:11:35.360Z,10.98
2023-04-16T09:14:05.129Z,10.95
2023-04-16T09:16:36.788Z,11.23
2023-04-16T09:19:06.807Z,10.02
2023-04-16T09:21:36.538Z,10.00
2023-04-16T09:24:09.506Z,10.52
2023-04-16T09:26:39.525Z,9.18
2023-04-16T09:29:09.965Z,9.30
2023-04-16T09:31:40.011Z,11.43
2023-04-16T09:34:12.056Z,9.43
2023-04-16T09:36:41.742Z,9.63
2023-04-16T09:39:22.152Z,9.13
2023-04-16T09:41:52.662Z,10.23
2023-04-16T09:44:22.383Z,10.18
2023-04-16T09:46:52.103Z,10.07
2023-04-16T09:49:21.864Z,10.27
2023-04-16T09:51:54.744Z,9.80
2023-04-16T09:54:28.903Z,9.55
2023-04-16T09:56:59.911Z,11.07
2023-04-16T09:59:34.209Z,10.73
2023-04-16T10:02:15.744Z,10.07
2023-04-16T10:04:53.644Z,11.75
2023-04-16T10:07:24.109Z,10.73
2023-04-16T10:09:56.450Z,11.23
2023-04-16T10:12:27.325Z,10.80
2023-04-16T10:14:57.054Z,10.35
2023-04-16T10:17:30.109Z,10.10
2023-04-16T10:20:01.775Z,10.77
2023-04-16T10:22:31.638Z,10.00
2023-04-16T10:25:04.174Z,10.40
2023-04-16T10:27:34.353Z,10.20
2023-04-16T10:30:04.974Z,10.60
2023-04-16T10:32:34.963Z,10.77
2023-04-16T10:35:04.879Z,10.95
2023-04-16T10:37:34.773Z,10.10
2023-04-16T10:40:25.065Z,10.50
2023-04-16T10:42:59.017Z,10.82
2023-04-16T10:45:41.049Z,10.60
2023-04-16T10:48:12.289Z,10.48
2023-04-16T10:50:42.093Z,9.65
2023-04-16T10:53:21.993Z,10.05
2023-04-16T10:56:13.825Z,10.68
2023-04-16T10:58:43.842Z,10.13
2023-04-16T11:01:17.494Z,9.93
2023-04-16T11:03:49.894Z,9.20
2023-04-16T11:06:21.116Z,9.43
2023-04-16T11:08:54.680Z,9.75
2023-04-16T11:11:27.671Z,9.20
2023-04-16T11:14:00.163Z,10.82
2023-04-16T11:16:30.221Z,12.20
2023-04-16T11:19:00.154Z,10.07
2023-04-16T11:21:29.897Z,9.15
2023-04-16T11:24:00.834Z,9.23
2023-04-16T11:26:33.412Z,9.07
2023-04-16T11:29:04.976Z,11.20
2023-04-16T11:31:34.750Z,9.80
2023-04-16T11:34:04.493Z,9.20
2023-04-16T11:36:46.194Z,9.10
2023-04-16T11:39:16.175Z,8.75
2023-04-16T11:41:49.126Z,8.38
2023-04-16T11:44:23.136Z,7.82
2023-04-16T11:49:30.304Z,7.38
2023-04-16T11:52:00.260Z,7.47
2023-04-16T11:54:34.830Z,7.47
2023-04-16T11:57:07.221Z,8.30
2023-04-16T11:59:37.214Z,9.75
2023-04-16T12:02:40.560Z,10.20
2023-04-16T12:05:28.618Z,9.40
2023-04-16T12:07:58.807Z,9.55
2023-04-16T12:10:29.047Z,8.45
2023-04-16T12:13:12.918Z,7.80
2023-04-16T12:15:49.597Z,7.85
2023-04-16T12:18:20.363Z,7.80
2023-04-16T12:20:50.990Z,7.20
2023-04-16T12:23:28.199Z,6.95
2023-04-16T12:25:59.824Z,8.40
2023-04-16T12:28:33.594Z,8.90
2023-04-16T12:31:03.683Z,8.27
2023-04-16T12:33:33.759Z,8.75
2023-04-16T12:36:04.806Z,9.40
2023-04-16T12:38:34.464Z,8.27
2023-04-16T12:41:05.829Z,8.35
2023-04-16T12:43:39.368Z,8.82
2023-04-16T12:46:09.161Z,8.35
2023-04-16T12:48:38.895Z,8.63
2023-04-16T12:51:09.007Z,7.93
2023-04-16T12:53:38.812Z,7.95
2023-04-16T12:56:08.523Z,8.23
2023-04-16T12:58:40.967Z,8.25
2023-04-16T13:01:12.029Z,7.90
2023-04-16T13:03:41.845Z,7.45
2023-04-16T13:06:11.901Z,7.68
2023-04-16T13:08:41.657Z,7.80
2023-04-16T13:11:11.896Z,8.02
2023-04-16T13:13:44.187Z,8.18
2023-04-16T13:16:13.909Z,6.93
2023-04-16T13:18:44.046Z,7.20
2023-04-16T13:21:14.305Z,8.73
2023-04-16T13:23:44.040Z,8.65
2023-04-16T13:26:15.621Z,8.27
2023-04-16T13:28:47.886Z,8.48
2023-04-16T13:31:20.737Z,8.43
2023-04-16T13:33:50.558Z,8.20
2023-04-16T13:36:20.288Z,8.32
2023-04-16T13:38:50.021Z,7.95
2023-04-16T13:41:19.710Z,8.45
2023-04-16T13:43:52.010Z,8.50
2023-04-16T13:46:21.781Z,8.32
2023-04-16T13:48:51.511Z,7.90
2023-04-16T13:51:21.842Z,8.00
2023-04-16T13:53:51.690Z,7.72
2023-04-16T13:56:21.386Z,7.63
2023-04-16T13:58:53.659Z,8.02
2023-04-16T14:01:23.504Z,8.63
2023-04-16T14:03:53.328Z,8.48
2023-04-16T14:06:23.096Z,8.23
2023-04-16T14:08:52.765Z,8.35
2023-04-16T14:11:22.524Z,7.45
2023-04-16T14:13:54.804Z,8.52
2023-04-16T14:16:24.600Z,7.88
2023-04-16T14:18:54.309Z,7.93
2023-04-16T14:21:23.997Z,8.07
2023-04-16T14:23:53.745Z,7.50
2023-04-16T14:26:23.550Z,7.85
2023-04-16T14:28:56.295Z,7.82
2023-04-16T14:31:26.301Z,6.88
2023-04-16T14:33:56.031Z,7.45
2023-04-16T14:36:25.833Z,7.63
2023-04-16T14:38:55.549Z,8.20
2023-04-16T14:41:25.270Z,7.70
2023-04-16T14:43:57.522Z,8.20
2023-04-16T14:46:27.550Z,7.75
2023-04-16T14:48:57.228Z,7.95
2023-04-16T14:51:27.540Z,8.32
2023-04-16T14:53:57.280Z,8.43
2023-04-16T14:56:27.000Z,7.53
2023-04-16T14:58:59.307Z,7.85
2023-04-16T15:01:29.148Z,8.15
2023-04-16T15:04:01.489Z,8.35
2023-04-16T15:06:32.386Z,7.57
2023-04-16T15:09:02.126Z,7.78
2023-04-16T15:11:31.819Z,7.90
2023-04-16T15:14:04.092Z,7.95
2023-04-16T15:16:33.850Z,8.60
2023-04-16T15:19:05.156Z,9.55
2023-04-16T15:21:35.085Z,8.00
2023-04-16T15:24:04.780Z,8.45
2023-04-16T15:26:34.487Z,8.30
2023-04-16T15:29:06.829Z,8.07
2023-04-16T15:31:36.554Z,7.93
2023-04-16T15:34:06.263Z,8.43
2023-04-16T15:36:36.127Z,7.80
2023-04-16T15:39:05.862Z,7.70
2023-04-16T15:41:37.013Z,7.45
2023-04-16T15:44:09.339Z,7.70
2023-04-16T15:46:39.215Z,7.68
2023-04-16T15:49:09.429Z,6.90
2023-04-16T15:51:39.340Z,8.23
2023-04-16T15:54:09.201Z,7.60
2023-04-16T15:56:39.660Z,7.15
2023-04-16T15:59:12.441Z,7.50
2023-04-16T16:01:42.313Z,7.57
2023-04-16T16:04:12.356Z,7.18
2023-04-16T16:06:42.405Z,6.85
2023-04-16T16:09:12.512Z,7.20
2023-04-16T16:11:42.449Z,7.07
2023-04-16T16:14:16.333Z,6.88
2023-04-16T16:16:47.128Z,6.43
2023-04-16T16:19:17.042Z,6.80
2023-04-16T16:21:46.759Z,7.53
2023-04-16T16:24:16.658Z,6.65
2023-04-16T16:26:46.504Z,7.07
2023-04-16T16:29:18.910Z,7.45
2023-04-16T16:31:48.661Z,6.78
2023-04-16T16:34:21.103Z,6.57
2023-04-16T16:36:51.634Z,6.35
2023-04-16T16:39:24.547Z,6.78
2023-04-16T16:41:54.948Z,7.07
2023-04-16T16:44:27.422Z,6.15
2023-04-16T16:46:57.114Z,6.30
2023-04-16T16:49:26.907Z,6.20
2023-04-16T16:51:57.724Z,5.95
2023-04-16T16:54:27.457Z,6.53
2023-04-16T16:56:57.124Z,6.95
2023-04-16T16:59:29.728Z,6.45
2023-04-16T17:01:59.497Z,6.43
2023-04-16T17:04:29.226Z,6.32
2023-04-16T17:06:59.021Z,6.43
2023-04-16T17:09:28.693Z,6.00
2023-04-16T17:11:58.381Z,6.13
2023-04-16T17:14:30.657Z,6.30
2023-04-16T17:17:00.408Z,6.22
2023-04-16T17:19:30.251Z,5.95
2023-04-16T17:21:59.961Z,6.00
2023-04-16T17:24:29.651Z,5.70
2023-04-16T17:26:59.328Z,6.85
2023-04-16T17:29:32.289Z,8.48
2023-04-16T17:32:02.089Z,7.97
2023-04-16T17:34:31.859Z,8.35
2023-04-16T17:37:01.582Z,8.07
2023-04-16T17:39:31.316Z,7.50
2023-04-16T17:42:03.158Z,7.60
2023-04-16T17:44:35.438Z,8.43
2023-04-16T17:47:05.161Z,7.95
2023-04-16T17:49:34.859Z,8.18
2023-04-16T17:52:04.539Z,8.10
2023-04-16T17:54:34.314Z,8.30
2023-04-16T17:57:04.483Z,8.02
2023-04-16T17:59:36.901Z,8.40
2023-04-16T18:02:06.691Z,8.45
2023-04-16T18:04:36.584Z,8.85
2023-04-16T18:07:06.613Z,8.65
2023-04-16T18:09:36.660Z,8.68
2023-04-16T18:12:06.995Z,7.80
2023-04-16T18:14:40.789Z,8.45
2023-04-16T18:17:10.513Z,7.97
2023-04-16T18:19:40.691Z,8.63
2023-04-16T18:22:10.422Z,9.18
2023-04-16T18:24:40.151Z,7.95
2023-04-16T18:27:09.894Z,7.95
2023-04-16T18:29:44.727Z,8.27
2023-04-16T18:32:15.019Z,9.90
2023-04-16T18:34:44.790Z,8.23
2023-04-16T18:37:14.646Z,8.65
2023-04-16T18:39:44.416Z,9.50
2023-04-16T18:42:14.110Z,8.38
2023-04-16T18:44:47.109Z,9.52
2023-04-16T18:47:17.076Z,10.60
2023-04-16T18:49:46.850Z,9.48
2023-04-16T18:52:16.558Z,9.45
2023-04-16T18:54:46.411Z,9.32
2023-04-16T18:57:16.564Z,9.73
2023-04-16T18:59:48.974Z,8.88
2023-04-16T19:02:18.814Z,11.18
2023-04-16T19:04:48.579Z,11.45
2023-04-16T19:07:18.286Z,9.75
2023-04-16T19:09:48.004Z,10.35
2023-04-16T19:12:17.710Z,10.07
2023-04-16T19:14:50.001Z,10.30
2023-04-16T19:17:19.682Z,10.15
2023-04-16T19:19:49.416Z,11.13
2023-04-16T19:22:19.146Z,12.32
2023-04-16T19:24:48.844Z,11.07
2023-04-16T19:27:18.666Z,11.25
2023-04-16T19:29:50.979Z,11.50
2023-04-16T19:32:21.188Z,10.65
2023-04-16T19:34:50.902Z,11.73
2023-04-16T19:37:20.617Z,11.98
2023-04-16T19:39:50.538Z,13.15
2023-04-16T19:42:20.261Z,12.93
2023-04-16T19:44:52.538Z,10.80
2023-04-16T19:47:22.631Z,11.10
2023-04-16T19:49:52.400Z,11.10
2023-04-16T19:52:22.109Z,10.73
2023-04-16T19:54:52.060Z,11.70
2023-04-16T19:57:21.774Z,10.20
2023-04-16T19:59:55.147Z,12.10
2023-04-16T20:02:25.127Z,11.30
2023-04-16T20:04:55.914Z,10.85
2023-04-16T20:07:25.791Z,11.15
2023-04-16T20:09:55.628Z,10.93
2023-04-16T20:12:25.329Z,11.15
2023-04-16T20:14:57.841Z,11.07
2023-04-16T20:17:27.649Z,10.90
2023-04-16T20:20:01.022Z,10.80
2023-04-16T20:22:30.788Z,10.67
2023-04-16T20:25:00.509Z,10.30
2023-04-16T20:27:30.196Z,10.65
2023-04-16T20:30:02.655Z,11.02
2023-04-16T20:32:32.672Z,11.00
2023-04-16T20:35:02.628Z,10.20
2023-04-16T20:37:32.683Z,10.57
2023-04-16T20:40:02.459Z,10.40
2023-04-16T20:42:32.371Z,9.63
2023-04-16T20:45:05.085Z,10.38
2023-04-16T20:47:35.001Z,11.07
2023-04-16T20:50:04.991Z,10.43
2023-04-16T20:52:34.700Z,10.52
2023-04-16T20:55:04.455Z,10.18
2023-04-16T20:57:34.142Z,10.73
2023-04-16T21:00:10.410Z,9.90
2023-04-16T21:02:40.418Z,10.27
2023-04-16T21:05:14.627Z,9.18
2023-04-16T21:07:44.454Z,9.00
2023-04-16T21:10:20.352Z,9.48
2023-04-16T21:12:50.287Z,9.98
2023-04-16T21:15:22.717Z,9.40
2023-04-16T21:17:52.464Z,9.07
2023-04-16T21:20:22.440Z,9.40
2023-04-16T21:22:56.864Z,9.15
2023-04-16T21:25:26.847Z,8.57
2023-04-16T21:27:56.555Z,9.23
2023-04-16T21:30:28.933Z,8.70
2023-04-16T21:32:58.675Z,8.88
2023-04-16T21:35:28.630Z,8.70
2023-04-16T21:37:58.345Z,8.90
2023-04-16T21:40:28.077Z,8.85
2023-04-16T21:42:57.769Z,9.90
2023-04-16T21:45:30.642Z,13.43
2023-04-16T21:48:00.478Z,9.93
2023-04-16T21:50:30.277Z,9.75
2023-04-16T21:52:59.988Z,9.57
2023-04-16T21:55:29.687Z,9.95
2023-04-16T21:57:59.424Z,8.90
2023-04-16T22:00:31.825Z,8.93
2023-04-16T22:03:01.728Z,9.27
2023-04-16T22:05:31.793Z,9.75
2023-04-16T22:08:05.931Z,9.80
2023-04-16T22:10:47.011Z,10.00
2023-04-16T22:13:18.010Z,8.93
2023-04-16T22:15:50.731Z,9.82
2023-04-16T22:18:20.429Z,10.88
2023-04-16T22:20:51.086Z,9.73
2023-04-16T22:23:20.816Z,10.57
2023-04-16T22:25:50.630Z,9.55
2023-04-16T22:28:20.365Z,10.25
2023-04-16T22:30:52.667Z,10.68
2023-04-16T22:33:22.427Z,9.80
2023-04-16T22:35:52.181Z,11.20
2023-04-16T22:38:22.228Z,10.90
2023-04-16T22:40:51.967Z,10.77
2023-04-16T22:43:21.676Z,10.23
2023-04-16T22:46:04.711Z,11.07
2023-04-16T22:48:36.417Z,11.25
2023-04-16T22:51:06.302Z,11.18
2023-04-16T22:53:36.934Z,12.02
2023-04-16T22:56:06.830Z,11.13
2023-04-16T22:58:36.976Z,12.52
2023-04-16T23:01:09.278Z,12.40
2023-04-16T23:03:39.065Z,10.68
2023-04-16T23:06:09.351Z,12.15
2023-04-16T23:08:39.082Z,11.68
2023-04-16T23:11:08.834Z,11.43
2023-04-16T23:13:38.955Z,11.82
2023-04-16T23:16:11.964Z,12.40
2023-04-16T23:18:41.677Z,11.15
2023-04-16T23:21:11.656Z,12.50
2023-04-16T23:23:41.359Z,12.32
2023-04-16T23:26:11.100Z,12.05
2023-04-16T23:28:40.819Z,13.40
2023-04-16T23:31:13.140Z,12.35
2023-04-16T23:33:42.886Z,13.00
2023-04-16T23:36:13.076Z,12.48
2023-04-16T23:38:42.808Z,12.00
2023-04-16T23:41:12.516Z,12.88
2023-04-16T23:43:42.304Z,11.10
2023-04-16T23:46:14.705Z,11.27
2023-04-16T23:48:44.443Z,12.20
2023-04-16T23:51:14.221Z,12.13
2023-04-16T23:53:43.926Z,12.45
2023-04-16T23:56:15.500Z,12.48
2023-04-16T23:58:45.312Z,13.48
